sensor_id;sensor_type;location;lat;lon;timestamp;P1;durP1;ratioP1;P2;durP2;ratioP2
71104;SDS011;58760;48.716;8.962;2022-09-01T00:02:17;13.27;;;9.38;;
71104;SDS011;58760;48.716;8.962;2022-09-01T00:04:43;14.00;;;10.13;;
71104;SDS011;58760;48.716;8.962;2022-09-01T00:09:35;13.70;;;10.15;;
71104;SDS011;58760;48.716;8.962;2022-09-01T00:12:01;13.52;;;9.43;;
71104;SDS011;58760;48.716;8.962;2022-09-01T00:14:30;14.60;;;10.07;;
71104;SDS011;58760;48.716;8.962;2022-09-01T00:16:58;15.45;;;10.00;;
71104;SDS011;58760;48.716;8.962;2022-09-01T00:19:26;13.63;;;9.75;;
71104;SDS011;58760;48.716;8.962;2022-09-01T00:21:53;12.65;;;10.02;;
71104;SDS011;58760;48.716;8.962;2022-09-01T00:26:45;13.80;;;9.40;;
71104;SDS011;58760;48.716;8.962;2022-09-01T00:29:11;12.45;;;8.45;;
71104;SDS011;58760;48.716;8.962;2022-09-01T00:31:37;13.65;;;10.18;;
71104;SDS011;58760;48.716;8.962;2022-09-01T00:34:03;15.88;;;9.77;;
71104;SDS011;58760;48.716;8.962;2022-09-01T00:36:29;12.93;;;9.60;;
71104;SDS011;58760;48.716;8.962;2022-09-01T00:38:54;13.85;;;9.85;;
71104;SDS011;58760;48.716;8.962;2022-09-01T00:41:23;12.60;;;9.40;;
71104;SDS011;58760;48.716;8.962;2022-09-01T00:43:51;12.27;;;9.50;;
71104;SDS011;58760;48.716;8.962;2022-09-01T00:46:22;14.20;;;9.57;;
71104;SDS011;58760;48.716;8.962;2022-09-01T00:48:51;15.23;;;9.65;;
71104;SDS011;58760;48.716;8.962;2022-09-01T00:51:19;15.68;;;10.07;;
71104;SDS011;58760;48.716;8.962;2022-09-01T00:53:45;15.57;;;10.73;;
71104;SDS011;58760;48.716;8.962;2022-09-01T00:56:11;19.35;;;10.52;;
71104;SDS011;58760;48.716;8.962;2022-09-01T00:58:38;14.48;;;10.35;;
71104;SDS011;58760;48.716;8.962;2022-09-01T01:01:05;13.70;;;10.43;;
71104;SDS011;58760;48.716;8.962;2022-09-01T01:03:33;13.93;;;10.70;;
71104;SDS011;58760;48.716;8.962;2022-09-01T01:06:00;16.45;;;11.30;;
71104;SDS011;58760;48.716;8.962;2022-09-01T01:08:30;15.15;;;11.55;;
71104;SDS011;58760;48.716;8.962;2022-09-01T01:11:01;16.17;;;11.75;;
71104;SDS011;58760;48.716;8.962;2022-09-01T01:13:29;15.57;;;10.93;;
71104;SDS011;58760;48.716;8.962;2022-09-01T01:16:00;18.40;;;12.07;;
71104;SDS011;58760;48.716;8.962;2022-09-01T01:18:27;18.92;;;11.85;;
71104;SDS011;58760;48.716;8.962;2022-09-01T01:21:03;18.40;;;13.32;;
71104;SDS011;58760;48.716;8.962;2022-09-01T01:23:56;17.13;;;12.75;;
71104;SDS011;58760;48.716;8.962;2022-09-01T01:26:30;16.77;;;11.68;;
71104;SDS011;58760;48.716;8.962;2022-09-01T01:28:56;19.40;;;12.65;;
71104;SDS011;58760;48.716;8.962;2022-09-01T01:31:22;17.92;;;13.15;;
71104;SDS011;58760;48.716;8.962;2022-09-01T01:33:53;20.27;;;13.60;;
71104;SDS011;58760;48.716;8.962;2022-09-01T01:38:50;18.00;;;12.95;;
71104;SDS011;58760;48.716;8.962;2022-09-01T01:41:17;17.80;;;13.07;;
71104;SDS011;58760;48.716;8.962;2022-09-01T01:43:43;16.77;;;12.98;;
71104;SDS011;58760;48.716;8.962;2022-09-01T01:46:10;18.85;;;14.18;;
71104;SDS011;58760;48.716;8.962;2022-09-01T01:48:37;18.95;;;13.68;;
71104;SDS011;58760;48.716;8.962;2022-09-01T01:51:04;20.23;;;14.00;;
71104;SDS011;58760;48.716;8.962;2022-09-01T01:53:31;21.00;;;14.20;;
71104;SDS011;58760;48.716;8.962;2022-09-01T01:55:57;15.20;;;12.25;;
71104;SDS011;58760;48.716;8.962;2022-09-01T01:58:25;18.02;;;13.13;;
71104;SDS011;58760;48.716;8.962;2022-09-01T02:00:54;18.58;;;13.60;;
71104;SDS011;58760;48.716;8.962;2022-09-01T02:03:21;15.32;;;11.82;;
71104;SDS011;58760;48.716;8.962;2022-09-01T02:05:50;17.15;;;13.93;;
71104;SDS011;58760;48.716;8.962;2022-09-01T02:08:18;19.17;;;13.20;;
71104;SDS011;58760;48.716;8.962;2022-09-01T02:10:48;19.10;;;13.85;;
71104;SDS011;58760;48.716;8.962;2022-09-01T02:13:16;18.50;;;13.68;;
71104;SDS011;58760;48.716;8.962;2022-09-01T02:15:52;16.27;;;13.05;;
71104;SDS011;58760;48.716;8.962;2022-09-01T02:18:20;18.67;;;14.32;;
71104;SDS011;58760;48.716;8.962;2022-09-01T02:20:52;16.77;;;13.48;;
71104;SDS011;58760;48.716;8.962;2022-09-01T02:23:19;17.88;;;12.70;;
71104;SDS011;58760;48.716;8.962;2022-09-01T02:25:49;17.55;;;13.60;;
71104;SDS011;58760;48.716;8.962;2022-09-01T02:28:19;16.83;;;12.75;;
71104;SDS011;58760;48.716;8.962;2022-09-01T02:30:48;19.00;;;14.32;;
71104;SDS011;58760;48.716;8.962;2022-09-01T02:33:23;16.15;;;13.40;;
71104;SDS011;58760;48.716;8.962;2022-09-01T02:35:51;19.02;;;13.63;;
71104;SDS011;58760;48.716;8.962;2022-09-01T02:38:22;15.88;;;12.20;;
71104;SDS011;58760;48.716;8.962;2022-09-01T02:40:51;16.50;;;11.57;;
71104;SDS011;58760;48.716;8.962;2022-09-01T02:43:18;16.83;;;11.75;;
71104;SDS011;58760;48.716;8.962;2022-09-01T02:45:46;14.05;;;11.82;;
71104;SDS011;58760;48.716;8.962;2022-09-01T02:48:15;14.80;;;12.02;;
71104;SDS011;58760;48.716;8.962;2022-09-01T02:50:42;14.25;;;11.85;;
71104;SDS011;58760;48.716;8.962;2022-09-01T02:53:08;16.98;;;13.48;;
71104;SDS011;58760;48.716;8.962;2022-09-01T02:55:35;17.60;;;13.77;;
71104;SDS011;58760;48.716;8.962;2022-09-01T02:58:02;18.00;;;13.88;;
71104;SDS011;58760;48.716;8.962;2022-09-01T03:00:28;18.38;;;14.27;;
71104;SDS011;58760;48.716;8.962;2022-09-01T03:02:56;19.08;;;15.18;;
71104;SDS011;58760;48.716;8.962;2022-09-01T03:05:24;19.98;;;13.88;;
71104;SDS011;58760;48.716;8.962;2022-09-01T03:07:55;18.27;;;14.68;;
71104;SDS011;58760;48.716;8.962;2022-09-01T03:10:24;19.27;;;14.82;;
71104;SDS011;58760;48.716;8.962;2022-09-01T03:12:54;21.63;;;14.50;;
71104;SDS011;58760;48.716;8.962;2022-09-01T03:15:20;19.35;;;14.25;;
71104;SDS011;58760;48.716;8.962;2022-09-01T03:17:47;20.33;;;14.80;;
71104;SDS011;58760;48.716;8.962;2022-09-01T03:20:13;18.95;;;13.60;;
71104;SDS011;58760;48.716;8.962;2022-09-01T03:22:39;20.60;;;14.80;;
71104;SDS011;58760;48.716;8.962;2022-09-01T03:25:04;18.75;;;14.10;;
71104;SDS011;58760;48.716;8.962;2022-09-01T03:27:30;19.08;;;14.93;;
71104;SDS011;58760;48.716;8.962;2022-09-01T03:29:55;19.33;;;14.65;;
71104;SDS011;58760;48.716;8.962;2022-09-01T03:32:21;18.05;;;14.27;;
71104;SDS011;58760;48.716;8.962;2022-09-01T03:34:46;19.48;;;14.93;;
71104;SDS011;58760;48.716;8.962;2022-09-01T03:37:12;20.52;;;15.95;;
71104;SDS011;58760;48.716;8.962;2022-09-01T03:39:37;21.33;;;15.30;;
71104;SDS011;58760;48.716;8.962;2022-09-01T03:42:03;21.02;;;15.82;;
71104;SDS011;58760;48.716;8.962;2022-09-01T03:44:29;18.80;;;14.85;;
71104;SDS011;58760;48.716;8.962;2022-09-01T03:46:54;20.63;;;14.45;;
71104;SDS011;58760;48.716;8.962;2022-09-01T03:49:22;18.65;;;14.77;;
71104;SDS011;58760;48.716;8.962;2022-09-01T03:51:49;19.70;;;15.25;;
71104;SDS011;58760;48.716;8.962;2022-09-01T03:54:16;22.65;;;15.50;;
71104;SDS011;58760;48.716;8.962;2022-09-01T03:56:42;18.88;;;14.55;;
71104;SDS011;58760;48.716;8.962;2022-09-01T03:59:07;17.85;;;14.30;;
71104;SDS011;58760;48.716;8.962;2022-09-01T04:01:40;16.88;;;13.38;;
71104;SDS011;58760;48.716;8.962;2022-09-01T04:04:10;18.98;;;14.82;;
71104;SDS011;58760;48.716;8.962;2022-09-01T04:06:40;16.65;;;13.40;;
71104;SDS011;58760;48.716;8.962;2022-09-01T04:09:07;15.02;;;12.80;;
71104;SDS011;58760;48.716;8.962;2022-09-01T04:11:32;16.35;;;12.60;;
71104;SDS011;58760;48.716;8.962;2022-09-01T04:16:29;14.98;;;11.85;;
71104;SDS011;58760;48.716;8.962;2022-09-01T04:19:19;14.55;;;11.85;;
71104;SDS011;58760;48.716;8.962;2022-09-01T04:21:59;17.00;;;13.05;;
71104;SDS011;58760;48.716;8.962;2022-09-01T04:24:26;14.07;;;11.20;;
71104;SDS011;58760;48.716;8.962;2022-09-01T04:26:55;15.50;;;12.45;;
71104;SDS011;58760;48.716;8.962;2022-09-01T04:29:22;17.83;;;14.02;;
71104;SDS011;58760;48.716;8.962;2022-09-01T04:31:51;17.27;;;13.15;;
71104;SDS011;58760;48.716;8.962;2022-09-01T04:34:37;17.25;;;12.88;;
71104;SDS011;58760;48.716;8.962;2022-09-01T04:37:08;18.00;;;14.23;;
71104;SDS011;58760;48.716;8.962;2022-09-01T04:39:53;19.08;;;14.88;;
71104;SDS011;58760;48.716;8.962;2022-09-01T04:42:20;19.80;;;16.00;;
71104;SDS011;58760;48.716;8.962;2022-09-01T04:44:49;18.35;;;14.40;;
71104;SDS011;58760;48.716;8.962;2022-09-01T04:47:17;20.92;;;15.98;;
71104;SDS011;58760;48.716;8.962;2022-09-01T04:49:44;18.77;;;14.60;;
71104;SDS011;58760;48.716;8.962;2022-09-01T04:52:11;21.42;;;16.45;;
71104;SDS011;58760;48.716;8.962;2022-09-01T04:54:37;20.33;;;15.32;;
71104;SDS011;58760;48.716;8.962;2022-09-01T04:57:03;21.63;;;18.05;;
71104;SDS011;58760;48.716;8.962;2022-09-01T04:59:31;19.92;;;16.70;;
71104;SDS011;58760;48.716;8.962;2022-09-01T05:01:56;21.13;;;16.50;;
71104;SDS011;58760;48.716;8.962;2022-09-01T05:04:25;21.13;;;16.15;;
71104;SDS011;58760;48.716;8.962;2022-09-01T05:06:56;18.80;;;14.82;;
71104;SDS011;58760;48.716;8.962;2022-09-01T05:09:29;19.75;;;15.70;;
71104;SDS011;58760;48.716;8.962;2022-09-01T05:11:59;20.17;;;15.52;;
71104;SDS011;58760;48.716;8.962;2022-09-01T05:14:38;18.15;;;14.75;;
71104;SDS011;58760;48.716;8.962;2022-09-01T05:17:06;17.27;;;12.85;;
71104;SDS011;58760;48.716;8.962;2022-09-01T05:19:35;17.40;;;13.25;;
71104;SDS011;58760;48.716;8.962;2022-09-01T05:22:02;14.65;;;12.27;;
71104;SDS011;58760;48.716;8.962;2022-09-01T05:24:28;14.55;;;11.40;;
71104;SDS011;58760;48.716;8.962;2022-09-01T05:26:56;15.98;;;13.30;;
71104;SDS011;58760;48.716;8.962;2022-09-01T05:29:24;18.98;;;13.52;;
71104;SDS011;58760;48.716;8.962;2022-09-01T05:31:52;16.20;;;13.02;;
71104;SDS011;58760;48.716;8.962;2022-09-01T05:34:19;15.65;;;12.07;;
71104;SDS011;58760;48.716;8.962;2022-09-01T05:36:55;15.43;;;12.93;;
71104;SDS011;58760;48.716;8.962;2022-09-01T05:39:23;15.00;;;12.23;;
71104;SDS011;58760;48.716;8.962;2022-09-01T05:41:50;14.05;;;11.55;;
71104;SDS011;58760;48.716;8.962;2022-09-01T05:44:17;15.85;;;13.05;;
71104;SDS011;58760;48.716;8.962;2022-09-01T05:46:46;17.52;;;14.13;;
71104;SDS011;58760;48.716;8.962;2022-09-01T05:49:13;16.70;;;13.52;;
71104;SDS011;58760;48.716;8.962;2022-09-01T05:51:43;17.67;;;13.93;;
71104;SDS011;58760;48.716;8.962;2022-09-01T05:54:14;20.70;;;16.33;;
71104;SDS011;58760;48.716;8.962;2022-09-01T05:56:42;21.10;;;17.15;;
71104;SDS011;58760;48.716;8.962;2022-09-01T05:59:08;20.20;;;16.70;;
71104;SDS011;58760;48.716;8.962;2022-09-01T06:01:35;19.73;;;15.85;;
71104;SDS011;58760;48.716;8.962;2022-09-01T06:04:05;22.45;;;17.70;;
71104;SDS011;58760;48.716;8.962;2022-09-01T06:06:39;24.67;;;17.30;;
71104;SDS011;58760;48.716;8.962;2022-09-01T06:09:11;20.77;;;16.85;;
71104;SDS011;58760;48.716;8.962;2022-09-01T06:11:38;22.45;;;17.27;;
71104;SDS011;58760;48.716;8.962;2022-09-01T06:14:05;21.60;;;16.63;;
71104;SDS011;58760;48.716;8.962;2022-09-01T06:16:33;20.52;;;16.58;;
71104;SDS011;58760;48.716;8.962;2022-09-01T06:19:00;20.23;;;16.83;;
71104;SDS011;58760;48.716;8.962;2022-09-01T06:21:25;22.50;;;17.00;;
71104;SDS011;58760;48.716;8.962;2022-09-01T06:23:53;23.13;;;16.70;;
71104;SDS011;58760;48.716;8.962;2022-09-01T06:26:21;24.30;;;17.92;;
71104;SDS011;58760;48.716;8.962;2022-09-01T06:28:56;25.85;;;17.90;;
71104;SDS011;58760;48.716;8.962;2022-09-01T06:31:26;21.30;;;16.27;;
71104;SDS011;58760;48.716;8.962;2022-09-01T06:33:54;21.70;;;16.65;;
71104;SDS011;58760;48.716;8.962;2022-09-01T06:36:22;23.27;;;17.70;;
71104;SDS011;58760;48.716;8.962;2022-09-01T06:38:50;21.45;;;16.92;;
71104;SDS011;58760;48.716;8.962;2022-09-01T06:41:17;22.45;;;17.77;;
71104;SDS011;58760;48.716;8.962;2022-09-01T06:43:47;19.13;;;14.52;;
71104;SDS011;58760;48.716;8.962;2022-09-01T06:46:15;18.88;;;15.02;;
71104;SDS011;58760;48.716;8.962;2022-09-01T06:48:41;20.05;;;15.43;;
71104;SDS011;58760;48.716;8.962;2022-09-01T06:51:10;20.75;;;14.02;;
71104;SDS011;58760;48.716;8.962;2022-09-01T06:53:38;18.13;;;14.85;;
71104;SDS011;58760;48.716;8.962;2022-09-01T06:56:04;21.60;;;16.20;;
71104;SDS011;58760;48.716;8.962;2022-09-01T06:58:29;21.30;;;13.73;;
71104;SDS011;58760;48.716;8.962;2022-09-01T07:00:55;20.02;;;16.08;;
71104;SDS011;58760;48.716;8.962;2022-09-01T07:03:20;18.50;;;14.13;;
71104;SDS011;58760;48.716;8.962;2022-09-01T07:05:46;19.63;;;13.93;;
71104;SDS011;58760;48.716;8.962;2022-09-01T07:08:16;17.05;;;13.77;;
71104;SDS011;58760;48.716;8.962;2022-09-01T07:10:46;20.67;;;14.90;;
71104;SDS011;58760;48.716;8.962;2022-09-01T07:13:18;15.57;;;11.65;;
71104;SDS011;58760;48.716;8.962;2022-09-01T07:15:50;20.10;;;13.60;;
71104;SDS011;58760;48.716;8.962;2022-09-01T07:18:17;19.23;;;13.57;;
71104;SDS011;58760;48.716;8.962;2022-09-01T07:20:45;17.58;;;13.40;;
71104;SDS011;58760;48.716;8.962;2022-09-01T07:23:13;19.02;;;12.45;;
71104;SDS011;58760;48.716;8.962;2022-09-01T07:25:42;15.32;;;10.32;;
71104;SDS011;58760;48.716;8.962;2022-09-01T07:28:09;17.38;;;12.27;;
71104;SDS011;58760;48.716;8.962;2022-09-01T07:30:42;14.65;;;11.38;;
71104;SDS011;58760;48.716;8.962;2022-09-01T07:33:12;14.73;;;10.50;;
71104;SDS011;58760;48.716;8.962;2022-09-01T07:35:40;16.00;;;10.18;;
71104;SDS011;58760;48.716;8.962;2022-09-01T07:38:06;13.90;;;8.52;;
71104;SDS011;58760;48.716;8.962;2022-09-01T07:40:33;12.93;;;9.25;;
71104;SDS011;58760;48.716;8.962;2022-09-01T07:43:03;14.48;;;9.25;;
71104;SDS011;58760;48.716;8.962;2022-09-01T07:45:32;11.63;;;8.18;;
71104;SDS011;58760;48.716;8.962;2022-09-01T07:48:00;11.65;;;8.43;;
71104;SDS011;58760;48.716;8.962;2022-09-01T07:50:30;10.75;;;7.03;;
71104;SDS011;58760;48.716;8.962;2022-09-01T07:53:01;9.70;;;7.07;;
71104;SDS011;58760;48.716;8.962;2022-09-01T07:55:28;11.15;;;7.30;;
71104;SDS011;58760;48.716;8.962;2022-09-01T07:57:56;9.95;;;6.88;;
71104;SDS011;58760;48.716;8.962;2022-09-01T08:00:22;9.45;;;6.18;;
71104;SDS011;58760;48.716;8.962;2022-09-01T08:02:48;9.55;;;6.20;;
71104;SDS011;58760;48.716;8.962;2022-09-01T08:05:16;12.43;;;6.40;;
71104;SDS011;58760;48.716;8.962;2022-09-01T08:07:46;9.73;;;5.47;;
71104;SDS011;58760;48.716;8.962;2022-09-01T08:10:13;11.68;;;5.18;;
71104;SDS011;58760;48.716;8.962;2022-09-01T08:12:39;8.15;;;4.90;;
71104;SDS011;58760;48.716;8.962;2022-09-01T08:15:06;9.93;;;5.07;;
71104;SDS011;58760;48.716;8.962;2022-09-01T08:17:33;8.23;;;5.05;;
71104;SDS011;58760;48.716;8.962;2022-09-01T08:20:01;7.68;;;4.53;;
71104;SDS011;58760;48.716;8.962;2022-09-01T08:22:27;7.05;;;4.50;;
71104;SDS011;58760;48.716;8.962;2022-09-01T08:24:52;8.15;;;4.45;;
71104;SDS011;58760;48.716;8.962;2022-09-01T08:27:18;7.50;;;4.22;;
71104;SDS011;58760;48.716;8.962;2022-09-01T08:29:44;7.15;;;3.80;;
71104;SDS011;58760;48.716;8.962;2022-09-01T08:32:09;8.40;;;4.60;;
71104;SDS011;58760;48.716;8.962;2022-09-01T08:34:35;7.35;;;4.25;;
71104;SDS011;58760;48.716;8.962;2022-09-01T08:37:02;8.75;;;4.20;;
71104;SDS011;58760;48.716;8.962;2022-09-01T08:39:28;8.70;;;3.65;;
71104;SDS011;58760;48.716;8.962;2022-09-01T08:47:27;10.25;;;5.00;;
71104;SDS011;58760;48.716;8.962;2022-09-01T08:49:52;9.43;;;5.20;;
71104;SDS011;58760;48.716;8.962;2022-09-01T08:52:21;9.38;;;4.57;;
71104;SDS011;58760;48.716;8.962;2022-09-01T08:54:59;7.95;;;4.57;;
71104;SDS011;58760;48.716;8.962;2022-09-01T08:57:29;7.15;;;4.53;;
71104;SDS011;58760;48.716;8.962;2022-09-01T08:59:58;7.20;;;4.45;;
71104;SDS011;58760;48.716;8.962;2022-09-01T09:10:29;8.98;;;4.80;;
71104;SDS011;58760;48.716;8.962;2022-09-01T09:15:46;9.50;;;4.50;;
71104;SDS011;58760;48.716;8.962;2022-09-01T09:18:32;11.02;;;5.13;;
71104;SDS011;58760;48.716;8.962;2022-09-01T09:21:06;11.23;;;5.47;;
71104;SDS011;58760;48.716;8.962;2022-09-01T09:23:55;10.77;;;4.80;;
71104;SDS011;58760;48.716;8.962;2022-09-01T09:26:29;9.68;;;4.88;;
71104;SDS011;58760;48.716;8.962;2022-09-01T09:28:55;9.63;;;5.10;;
71104;SDS011;58760;48.716;8.962;2022-09-01T09:33:52;8.55;;;4.30;;
71104;SDS011;58760;48.716;8.962;2022-09-01T09:36:18;7.22;;;4.22;;
71104;SDS011;58760;48.716;8.962;2022-09-01T09:38:46;8.02;;;5.18;;
71104;SDS011;58760;48.716;8.962;2022-09-01T09:41:19;9.35;;;4.95;;
71104;SDS011;58760;48.716;8.962;2022-09-01T09:43:52;11.65;;;4.82;;
71104;SDS011;58760;48.716;8.962;2022-09-01T09:52:11;7.18;;;4.22;;
71104;SDS011;58760;48.716;8.962;2022-09-01T09:54:34;10.23;;;4.97;;
71104;SDS011;58760;48.716;8.962;2022-09-01T09:57:22;10.80;;;3.67;;
71104;SDS011;58760;48.716;8.962;2022-09-01T09:59:47;6.65;;;3.03;;
71104;SDS011;58760;48.716;8.962;2022-09-01T10:02:26;7.07;;;2.97;;
71104;SDS011;58760;48.716;8.962;2022-09-01T10:05:01;4.97;;;2.80;;
71104;SDS011;58760;48.716;8.962;2022-09-01T10:07:48;6.30;;;3.10;;
71104;SDS011;58760;48.716;8.962;2022-09-01T10:12:53;5.93;;;3.08;;
71104;SDS011;58760;48.716;8.962;2022-09-01T10:15:22;5.63;;;3.10;;
71104;SDS011;58760;48.716;8.962;2022-09-01T10:17:50;6.75;;;3.20;;
71104;SDS011;58760;48.716;8.962;2022-09-01T10:20:20;5.47;;;3.03;;
71104;SDS011;58760;48.716;8.962;2022-09-01T10:22:50;5.40;;;2.92;;
71104;SDS011;58760;48.716;8.962;2022-09-01T10:25:23;6.07;;;2.80;;
71104;SDS011;58760;48.716;8.962;2022-09-01T10:27:57;5.07;;;2.53;;
71104;SDS011;58760;48.716;8.962;2022-09-01T10:30:28;5.10;;;2.80;;
71104;SDS011;58760;48.716;8.962;2022-09-01T10:32:55;6.43;;;3.22;;
71104;SDS011;58760;48.716;8.962;2022-09-01T10:37:51;6.93;;;3.20;;
71104;SDS011;58760;48.716;8.962;2022-09-01T10:42:59;7.50;;;3.20;;
71104;SDS011;58760;48.716;8.962;2022-09-01T10:45:45;5.40;;;2.78;;
71104;SDS011;58760;48.716;8.962;2022-09-01T10:50:52;4.82;;;2.55;;
71104;SDS011;58760;48.716;8.962;2022-09-01T10:53:41;5.03;;;2.38;;
71104;SDS011;58760;48.716;8.962;2022-09-01T10:56:25;5.05;;;2.80;;
71104;SDS011;58760;48.716;8.962;2022-09-01T10:59:09;5.88;;;2.50;;
71104;SDS011;58760;48.716;8.962;2022-09-01T11:04:12;5.25;;;2.53;;
71104;SDS011;58760;48.716;8.962;2022-09-01T11:09:36;4.75;;;2.30;;
71104;SDS011;58760;48.716;8.962;2022-09-01T11:14:34;5.78;;;2.28;;
71104;SDS011;58760;48.716;8.962;2022-09-01T11:20:06;5.45;;;2.60;;
71104;SDS011;58760;48.716;8.962;2022-09-01T11:22:35;7.03;;;2.53;;
71104;SDS011;58760;48.716;8.962;2022-09-01T11:33:51;6.22;;;2.30;;
71104;SDS011;58760;48.716;8.962;2022-09-01T11:36:13;4.15;;;2.17;;
71104;SDS011;58760;48.716;8.962;2022-09-01T11:39:08;5.40;;;2.30;;
71104;SDS011;58760;48.716;8.962;2022-09-01T11:44:19;5.90;;;2.53;;
71104;SDS011;58760;48.716;8.962;2022-09-01T11:46:49;5.72;;;2.70;;
71104;SDS011;58760;48.716;8.962;2022-09-01T11:49:53;5.50;;;1.83;;
71104;SDS011;58760;48.716;8.962;2022-09-01T11:52:14;4.55;;;2.10;;
71104;SDS011;58760;48.716;8.962;2022-09-01T11:54:41;8.20;;;3.63;;
71104;SDS011;58760;48.716;8.962;2022-09-01T11:59:44;3.10;;;1.83;;
71104;SDS011;58760;48.716;8.962;2022-09-01T12:04:41;4.63;;;1.77;;
71104;SDS011;58760;48.716;8.962;2022-09-01T12:07:07;3.00;;;1.58;;
71104;SDS011;58760;48.716;8.962;2022-09-01T12:09:38;8.50;;;1.80;;
71104;SDS011;58760;48.716;8.962;2022-09-01T12:12:29;4.30;;;1.80;;
71104;SDS011;58760;48.716;8.962;2022-09-01T12:14:58;4.43;;;1.77;;
71104;SDS011;58760;48.716;8.962;2022-09-01T12:17:25;5.30;;;1.77;;
71104;SDS011;58760;48.716;8.962;2022-09-01T12:19:50;3.28;;;1.52;;
71104;SDS011;58760;48.716;8.962;2022-09-01T12:22:17;2.40;;;1.40;;
71104;SDS011;58760;48.716;8.962;2022-09-01T12:24:48;4.13;;;1.83;;
71104;SDS011;58760;48.716;8.962;2022-09-01T12:27:19;3.03;;;1.45;;
71104;SDS011;58760;48.716;8.962;2022-09-01T12:29:47;3.20;;;1.50;;
71104;SDS011;58760;48.716;8.962;2022-09-01T12:32:14;2.13;;;1.35;;
71104;SDS011;58760;48.716;8.962;2022-09-01T12:34:58;2.28;;;1.27;;
71104;SDS011;58760;48.716;8.962;2022-09-01T12:37:25;3.10;;;1.40;;
71104;SDS011;58760;48.716;8.962;2022-09-01T12:39:52;2.97;;;1.65;;
71104;SDS011;58760;48.716;8.962;2022-09-01T12:50:43;5.18;;;1.45;;
71104;SDS011;58760;48.716;8.962;2022-09-01T12:52:47;4.70;;;2.58;;
71104;SDS011;58760;48.716;8.962;2022-09-01T12:55:22;3.00;;;1.70;;
71104;SDS011;58760;48.716;8.962;2022-09-01T12:57:49;3.38;;;1.40;;
71104;SDS011;58760;48.716;8.962;2022-09-01T13:00:18;5.80;;;1.83;;
71104;SDS011;58760;48.716;8.962;2022-09-01T13:02:49;2.67;;;1.70;;
71104;SDS011;58760;48.716;8.962;2022-09-01T13:05:30;2.83;;;1.50;;
71104;SDS011;58760;48.716;8.962;2022-09-01T13:07:57;5.28;;;1.60;;
71104;SDS011;58760;48.716;8.962;2022-09-01T13:10:26;2.22;;;1.40;;
71104;SDS011;58760;48.716;8.962;2022-09-01T13:12:55;4.43;;;1.80;;
71104;SDS011;58760;48.716;8.962;2022-09-01T13:15:22;5.53;;;1.60;;
71104;SDS011;58760;48.716;8.962;2022-09-01T13:17:49;2.72;;;1.40;;
71104;SDS011;58760;48.716;8.962;2022-09-01T13:20:15;6.05;;;2.08;;
71104;SDS011;58760;48.716;8.962;2022-09-01T13:22:42;4.60;;;1.73;;
71104;SDS011;58760;48.716;8.962;2022-09-01T13:25:09;5.00;;;1.60;;
71104;SDS011;58760;48.716;8.962;2022-09-01T13:27:41;2.22;;;1.50;;
71104;SDS011;58760;48.716;8.962;2022-09-01T13:30:08;3.35;;;1.50;;
71104;SDS011;58760;48.716;8.962;2022-09-01T13:32:44;5.90;;;1.92;;
71104;SDS011;58760;48.716;8.962;2022-09-01T13:35:12;4.80;;;1.92;;
71104;SDS011;58760;48.716;8.962;2022-09-01T13:37:39;3.45;;;1.80;;
71104;SDS011;58760;48.716;8.962;2022-09-01T13:40:06;3.40;;;1.63;;
71104;SDS011;58760;48.716;8.962;2022-09-01T13:42:34;3.65;;;1.52;;
71104;SDS011;58760;48.716;8.962;2022-09-01T13:44:59;4.13;;;1.50;;
71104;SDS011;58760;48.716;8.962;2022-09-01T13:47:25;4.88;;;1.60;;
71104;SDS011;58760;48.716;8.962;2022-09-01T13:49:50;2.55;;;1.48;;
71104;SDS011;58760;48.716;8.962;2022-09-01T13:52:16;4.63;;;1.52;;
71104;SDS011;58760;48.716;8.962;2022-09-01T13:54:42;2.70;;;1.58;;
71104;SDS011;58760;48.716;8.962;2022-09-01T13:57:09;6.25;;;2.08;;
71104;SDS011;58760;48.716;8.962;2022-09-01T13:59:35;3.97;;;1.60;;
71104;SDS011;58760;48.716;8.962;2022-09-01T14:02:01;4.10;;;1.73;;
71104;SDS011;58760;48.716;8.962;2022-09-01T14:04:26;3.60;;;1.67;;
71104;SDS011;58760;48.716;8.962;2022-09-01T14:06:52;4.32;;;1.70;;
71104;SDS011;58760;48.716;8.962;2022-09-01T14:09:17;3.97;;;1.60;;
71104;SDS011;58760;48.716;8.962;2022-09-01T14:11:43;3.40;;;1.35;;
71104;SDS011;58760;48.716;8.962;2022-09-01T14:14:09;8.23;;;1.95;;
71104;SDS011;58760;48.716;8.962;2022-09-01T14:16:34;5.88;;;1.80;;
71104;SDS011;58760;48.716;8.962;2022-09-01T14:19:00;4.80;;;1.60;;
71104;SDS011;58760;48.716;8.962;2022-09-01T14:21:25;3.00;;;1.38;;
71104;SDS011;58760;48.716;8.962;2022-09-01T14:23:51;4.35;;;1.38;;
71104;SDS011;58760;48.716;8.962;2022-09-01T14:26:17;3.47;;;1.30;;
71104;SDS011;58760;48.716;8.962;2022-09-01T14:28:43;3.80;;;1.48;;
71104;SDS011;58760;48.716;8.962;2022-09-01T14:31:10;4.32;;;1.65;;
71104;SDS011;58760;48.716;8.962;2022-09-01T14:33:37;5.30;;;1.75;;
71104;SDS011;58760;48.716;8.962;2022-09-01T14:36:04;7.68;;;2.30;;
71104;SDS011;58760;48.716;8.962;2022-09-01T14:38:30;6.32;;;2.10;;
71104;SDS011;58760;48.716;8.962;2022-09-01T14:40:56;4.20;;;1.83;;
71104;SDS011;58760;48.716;8.962;2022-09-01T14:43:21;7.75;;;2.38;;
71104;SDS011;58760;48.716;8.962;2022-09-01T14:45:47;14.07;;;2.80;;
71104;SDS011;58760;48.716;8.962;2022-09-01T14:48:13;4.45;;;1.85;;
71104;SDS011;58760;48.716;8.962;2022-09-01T14:50:42;5.03;;;1.80;;
71104;SDS011;58760;48.716;8.962;2022-09-01T14:53:10;7.68;;;2.30;;
71104;SDS011;58760;48.716;8.962;2022-09-01T14:55:37;3.92;;;1.80;;
71104;SDS011;58760;48.716;8.962;2022-09-01T14:58:03;5.45;;;1.80;;
71104;SDS011;58760;48.716;8.962;2022-09-01T15:00:30;3.67;;;1.77;;
71104;SDS011;58760;48.716;8.962;2022-09-01T15:02:59;3.88;;;1.70;;
71104;SDS011;58760;48.716;8.962;2022-09-01T15:05:24;4.13;;;1.85;;
71104;SDS011;58760;48.716;8.962;2022-09-01T15:07:50;3.40;;;2.00;;
71104;SDS011;58760;48.716;8.962;2022-09-01T15:10:18;5.65;;;1.90;;
71104;SDS011;58760;48.716;8.962;2022-09-01T15:12:45;3.75;;;1.65;;
71104;SDS011;58760;48.716;8.962;2022-09-01T15:15:13;3.58;;;1.80;;
71104;SDS011;58760;48.716;8.962;2022-09-01T15:17:40;5.88;;;1.83;;
71104;SDS011;58760;48.716;8.962;2022-09-01T15:20:06;3.30;;;1.92;;
71104;SDS011;58760;48.716;8.962;2022-09-01T15:22:50;5.88;;;1.80;;
71104;SDS011;58760;48.716;8.962;2022-09-01T15:25:16;2.45;;;1.60;;
71104;SDS011;58760;48.716;8.962;2022-09-01T15:27:42;4.95;;;1.80;;
71104;SDS011;58760;48.716;8.962;2022-09-01T15:30:08;3.90;;;1.70;;
71104;SDS011;58760;48.716;8.962;2022-09-01T15:32:46;3.30;;;1.63;;
71104;SDS011;58760;48.716;8.962;2022-09-01T15:35:14;2.85;;;1.60;;
71104;SDS011;58760;48.716;8.962;2022-09-01T15:37:40;4.25;;;1.70;;
71104;SDS011;58760;48.716;8.962;2022-09-01T15:40:06;5.55;;;1.73;;
71104;SDS011;58760;48.716;8.962;2022-09-01T15:42:34;4.32;;;1.50;;
71104;SDS011;58760;48.716;8.962;2022-09-01T15:45:00;4.95;;;1.40;;
71104;SDS011;58760;48.716;8.962;2022-09-01T15:47:28;7.13;;;1.35;;
71104;SDS011;58760;48.716;8.962;2022-09-01T15:49:54;6.85;;;1.80;;
71104;SDS011;58760;48.716;8.962;2022-09-01T15:52:19;5.40;;;1.80;;
71104;SDS011;58760;48.716;8.962;2022-09-01T15:54:45;7.28;;;1.77;;
71104;SDS011;58760;48.716;8.962;2022-09-01T15:57:10;2.95;;;1.70;;
71104;SDS011;58760;48.716;8.962;2022-09-01T15:59:36;4.32;;;2.05;;
71104;SDS011;58760;48.716;8.962;2022-09-01T16:02:04;3.45;;;1.77;;
71104;SDS011;58760;48.716;8.962;2022-09-01T16:04:31;4.25;;;1.90;;